createdAt,value
2023-03-04T00:00:20.698Z,7.54
2023-03-04T00:01:17.459Z,6.61
2023-03-04T00:02:14.499Z,7.56
2023-03-04T00:03:11.414Z,7.00
2023-03-04T00:04:08.321Z,7.62
2023-03-04T00:05:05.609Z,6.96
2023-03-04T00:06:06.796Z,4.94
2023-03-04T00:07:06.853Z,6.73
2023-03-04T00:08:05.983Z,7.57
2023-03-04T00:09:04.771Z,6.88
2023-03-04T00:10:01.640Z,7.73
2023-03-04T00:10:58.491Z,7.14
2023-03-04T00:11:55.331Z,4.25
2023-03-04T00:12:52.299Z,7.65
2023-03-04T00:13:52.687Z,7.28
2023-03-04T00:14:49.500Z,6.54
2023-03-04T00:15:46.264Z,7.18
2023-03-04T00:16:43.117Z,4.65
2023-03-04T00:17:40.065Z,6.48
2023-03-04T00:18:36.925Z,6.42
2023-03-04T00:19:35.133Z,7.17
2023-03-04T00:20:31.979Z,7.99
2023-03-04T00:21:28.799Z,7.91
2023-03-04T00:22:25.534Z,7.68
2023-03-04T00:23:22.336Z,6.98
2023-03-04T00:24:19.126Z,6.88
2023-03-04T00:25:16.483Z,7.36
2023-03-04T00:26:13.647Z,4.92
2023-03-04T00:27:10.489Z,6.40
2023-03-04T00:28:07.449Z,6.96
2023-03-04T00:29:04.254Z,7.87
2023-03-04T00:30:01.228Z,7.50
2023-03-04T00:30:58.100Z,6.75
2023-03-04T00:31:55.307Z,7.83
2023-03-04T00:32:52.134Z,4.65
2023-03-04T00:33:49.061Z,6.65
2023-03-04T00:34:46.159Z,4.12
2023-03-04T00:35:44.241Z,7.25
2023-03-04T00:36:41.293Z,6.43
2023-03-04T00:37:38.053Z,8.09
2023-03-04T00:38:34.828Z,7.56
2023-03-04T00:39:31.665Z,6.95
2023-03-04T00:40:28.489Z,7.78
2023-03-04T00:41:25.422Z,7.76
2023-03-04T00:42:22.245Z,7.64
2023-03-04T00:43:19.213Z,7.95
2023-03-04T00:44:16.275Z,7.56
2023-03-04T00:45:13.430Z,7.69
2023-03-04T00:46:10.380Z,7.93
2023-03-04T00:47:07.455Z,7.83
2023-03-04T00:48:04.430Z,7.31
2023-03-04T00:49:01.277Z,7.78
2023-03-04T00:49:58.081Z,7.69
2023-03-04T00:50:54.908Z,7.11
2023-03-04T00:51:52.217Z,7.06
2023-03-04T00:52:49.074Z,6.97
2023-03-04T00:53:45.937Z,7.47
2023-03-04T00:54:42.801Z,7.53
2023-03-04T00:55:41.736Z,6.42
2023-03-04T00:56:38.633Z,7.51
2023-03-04T00:57:35.669Z,5.50
2023-03-04T00:58:32.622Z,7.38
2023-03-04T00:59:29.433Z,7.38
2023-03-04T01:00:29.442Z,7.37
2023-03-04T01:01:28.851Z,7.70
2023-03-04T01:02:26.341Z,6.83
2023-03-04T01:03:24.639Z,6.75
2023-03-04T01:04:21.483Z,6.35
2023-03-04T01:05:18.714Z,7.10
2023-03-04T01:06:18.684Z,6.44
2023-03-04T01:07:15.469Z,7.05
2023-03-04T01:08:12.395Z,5.00
2023-03-04T01:09:09.519Z,7.55
2023-03-04T01:10:08.122Z,7.59
2023-03-04T01:11:08.325Z,7.02
2023-03-04T01:12:07.142Z,7.23
2023-03-04T01:13:03.997Z,7.67
2023-03-04T01:14:00.848Z,6.45
2023-03-04T01:14:57.656Z,7.41
2023-03-04T01:15:54.477Z,7.49
2023-03-04T01:16:51.450Z,7.52
2023-03-04T01:17:48.437Z,7.04
2023-03-04T01:18:47.252Z,7.71
2023-03-04T01:19:44.051Z,7.72
2023-03-04T01:20:40.867Z,7.78
2023-03-04T01:21:37.821Z,6.96
2023-03-04T01:22:34.713Z,7.22
2023-03-04T01:23:31.644Z,7.79
2023-03-04T01:24:30.002Z,7.18
2023-03-04T01:25:26.856Z,7.39
2023-03-04T01:26:23.561Z,7.42
2023-03-04T01:27:20.605Z,7.53
2023-03-04T01:28:17.415Z,7.46
2023-03-04T01:29:14.157Z,7.56
2023-03-04T01:30:11.708Z,7.73
2023-03-04T01:31:08.617Z,6.34
2023-03-04T01:32:05.731Z,6.37
2023-03-04T01:33:02.665Z,7.41
2023-03-04T01:33:59.558Z,7.75
2023-03-04T01:34:56.466Z,7.92
2023-03-04T01:35:53.357Z,7.12
2023-03-04T01:36:50.162Z,7.41
2023-03-04T01:37:46.982Z,7.76
2023-03-04T01:38:44.172Z,7.64
2023-03-04T01:39:41.093Z,6.25
2023-03-04T01:40:38.330Z,6.88
2023-03-04T01:41:35.268Z,7.60
2023-03-04T01:42:36.110Z,7.70
2023-03-04T01:43:36.860Z,5.58
2023-03-04T01:44:33.981Z,7.74
2023-03-04T01:45:33.701Z,7.55
2023-03-04T01:46:32.054Z,5.84
2023-03-04T01:47:31.679Z,7.24
2023-03-04T01:48:37.193Z,7.46
2023-03-04T01:49:34.104Z,6.77
2023-03-04T01:50:35.756Z,6.28
2023-03-04T01:51:32.583Z,7.30
2023-03-04T01:52:29.574Z,6.85
2023-03-04T01:53:28.217Z,7.25
2023-03-04T01:54:25.096Z,6.31
2023-03-04T01:55:24.062Z,7.38
2023-03-04T01:56:28.252Z,7.47
2023-03-04T01:57:26.607Z,5.50
2023-03-04T01:58:30.158Z,7.41
2023-03-04T01:59:31.566Z,6.53
2023-03-04T02:00:31.985Z,7.52
2023-03-04T02:01:31.825Z,5.85
2023-03-04T02:02:28.597Z,7.11
2023-03-04T02:03:25.810Z,7.49
2023-03-04T02:04:26.954Z,6.72
2023-03-04T02:05:25.063Z,7.31
2023-03-04T02:06:21.889Z,7.20
2023-03-04T02:07:18.724Z,6.45
2023-03-04T02:08:21.398Z,6.85
2023-03-04T02:09:19.595Z,7.41
2023-03-04T02:10:16.643Z,7.42
2023-03-04T02:11:13.338Z,7.28
2023-03-04T02:12:10.083Z,6.85
2023-03-04T02:13:07.468Z,7.44
2023-03-04T02:14:06.442Z,7.43
2023-03-04T02:15:03.713Z,6.81
2023-03-04T02:16:00.614Z,6.91
2023-03-04T02:16:57.601Z,6.65
2023-03-04T02:17:54.538Z,7.17
2023-03-04T02:18:51.895Z,6.92
2023-03-04T02:19:59.491Z,6.85
2023-03-04T02:21:09.517Z,7.13
2023-03-04T02:22:06.535Z,6.70
2023-03-04T02:23:26.723Z,7.04
2023-03-04T02:24:31.239Z,7.00
2023-03-04T02:25:39.183Z,7.06
2023-03-04T02:26:36.625Z,7.36
2023-03-04T02:27:33.474Z,7.17
2023-03-04T02:28:30.266Z,6.87
2023-03-04T02:29:28.884Z,6.07
2023-03-04T02:30:25.958Z,7.75
2023-03-04T02:31:25.461Z,7.39
2023-03-04T02:32:22.382Z,7.39
2023-03-04T02:33:20.084Z,7.52
2023-03-04T02:34:21.243Z,7.41
2023-03-04T02:35:18.866Z,6.68
2023-03-04T02:36:16.019Z,7.72
2023-03-04T02:37:13.976Z,7.58
2023-03-04T02:38:12.480Z,6.97
2023-03-04T02:39:34.180Z,7.16
2023-03-04T02:40:34.391Z,7.18
2023-03-04T02:41:31.701Z,6.93
2023-03-04T02:42:28.518Z,6.37
2023-03-04T02:43:25.254Z,6.94
2023-03-04T02:44:37.154Z,6.85
2023-03-04T02:45:39.616Z,7.01
2023-03-04T02:46:36.486Z,6.87
2023-03-04T02:47:33.249Z,7.17
2023-03-04T02:48:30.000Z,7.43
2023-03-04T02:49:29.864Z,7.66
2023-03-04T02:50:31.964Z,7.42
2023-03-04T02:51:28.797Z,7.66
2023-03-04T02:52:26.885Z,7.84
2023-03-04T02:53:25.593Z,7.22
2023-03-04T02:54:24.432Z,7.83
2023-03-04T02:55:21.174Z,6.66
2023-03-04T02:56:18.031Z,7.28
2023-03-04T02:57:15.670Z,7.34
2023-03-04T02:58:13.853Z,6.49
2023-03-04T02:59:10.623Z,7.15
2023-03-04T03:00:11.033Z,5.79
2023-03-04T03:01:08.774Z,5.55
2023-03-04T03:02:07.369Z,6.94
2023-03-04T03:03:04.563Z,4.43
2023-03-04T03:04:01.356Z,7.23
2023-03-04T03:04:58.375Z,7.16
2023-03-04T03:05:55.257Z,7.32
2023-03-04T03:06:52.042Z,7.13
2023-03-04T03:07:48.825Z,7.03
2023-03-04T03:08:45.540Z,4.99
2023-03-04T03:09:42.477Z,6.44
2023-03-04T03:10:39.338Z,7.02
2023-03-04T03:11:36.553Z,7.33
2023-03-04T03:12:33.346Z,7.24
2023-03-04T03:13:30.297Z,6.09
2023-03-04T03:14:27.060Z,7.12
2023-03-04T03:15:24.709Z,6.47
2023-03-04T03:16:21.644Z,7.06
2023-03-04T03:17:18.612Z,6.70
2023-03-04T03:18:15.548Z,5.30
2023-03-04T03:19:12.357Z,6.76
2023-03-04T03:20:11.610Z,7.55
2023-03-04T03:21:08.510Z,7.41
2023-03-04T03:22:06.467Z,7.15
2023-03-04T03:23:03.552Z,7.41
2023-03-04T03:24:00.375Z,6.77
2023-03-04T03:24:57.255Z,6.73
2023-03-04T03:25:54.014Z,6.72
2023-03-04T03:26:50.932Z,7.06
2023-03-04T03:27:47.763Z,7.46
2023-03-04T03:28:44.594Z,7.56
2023-03-04T03:29:41.457Z,6.30
2023-03-04T03:30:38.353Z,7.47
2023-03-04T03:31:35.236Z,7.82
2023-03-04T03:32:32.584Z,6.31
2023-03-04T03:33:31.538Z,7.03
2023-03-04T03:34:28.869Z,6.09
2023-03-04T03:35:25.719Z,5.97
2023-03-04T03:36:22.624Z,6.46
2023-03-04T03:37:19.462Z,7.07
2023-03-04T03:38:16.299Z,6.94
2023-03-04T03:39:13.129Z,6.26
2023-03-04T03:40:10.823Z,6.64
2023-03-04T03:41:07.618Z,5.52
2023-03-04T03:42:04.490Z,5.85
2023-03-04T03:43:01.327Z,7.10
2023-03-04T03:43:58.176Z,6.82
2023-03-04T03:44:56.054Z,2.53
2023-03-04T03:45:52.981Z,5.79
2023-03-04T03:46:49.836Z,5.88
2023-03-04T03:47:46.604Z,6.30
2023-03-04T03:48:43.406Z,6.62
2023-03-04T03:49:40.234Z,6.26
2023-03-04T03:50:37.261Z,6.31
2023-03-04T03:51:34.126Z,5.66
2023-03-04T03:52:30.928Z,6.21
2023-03-04T03:53:27.833Z,6.16
2023-03-04T03:54:24.619Z,5.27
2023-03-04T03:55:21.868Z,6.11
2023-03-04T03:56:18.673Z,5.09
2023-03-04T03:57:15.637Z,6.16
2023-03-04T03:58:12.536Z,5.42
2023-03-04T03:59:09.359Z,6.13
2023-03-04T04:00:07.833Z,5.98
2023-03-04T04:01:04.960Z,6.32
2023-03-04T04:02:01.928Z,6.71
2023-03-04T04:03:01.080Z,6.46
2023-03-04T04:03:58.000Z,6.44
2023-03-04T04:04:54.827Z,6.83
2023-03-04T04:05:51.637Z,5.90
2023-03-04T04:06:48.453Z,7.26
2023-03-04T04:07:45.393Z,6.49
2023-03-04T04:08:42.230Z,7.38
2023-03-04T04:09:39.085Z,7.36
2023-03-04T04:10:36.071Z,6.74
2023-03-04T04:11:33.049Z,6.95
2023-03-04T04:12:30.018Z,6.72
2023-03-04T04:13:27.049Z,4.55
2023-03-04T04:14:23.938Z,5.77
2023-03-04T04:15:20.860Z,5.64
2023-03-04T04:16:17.756Z,5.48
2023-03-04T04:17:14.590Z,5.57
2023-03-04T04:18:11.456Z,5.52
2023-03-04T04:19:10.466Z,5.91
2023-03-04T04:20:08.374Z,5.86
2023-03-04T04:21:05.512Z,5.61
2023-03-04T04:22:03.803Z,5.88
2023-03-04T04:23:00.741Z,6.04
2023-03-04T04:23:57.548Z,6.00
2023-03-04T04:24:54.569Z,5.93
2023-03-04T04:25:51.399Z,5.44
2023-03-04T04:26:48.283Z,5.43
2023-03-04T04:27:45.075Z,5.79
2023-03-04T04:28:41.991Z,5.74
2023-03-04T04:29:41.313Z,4.69
2023-03-04T04:30:38.761Z,5.74
2023-03-04T04:31:36.184Z,2.40
2023-03-04T04:32:33.116Z,4.57
2023-03-04T04:33:29.921Z,4.41
2023-03-04T04:34:26.881Z,4.93
2023-03-04T04:35:23.784Z,5.85
2023-03-04T04:36:20.744Z,5.73
2023-03-04T04:37:17.590Z,5.64
2023-03-04T04:38:14.414Z,5.71
2023-03-04T04:39:11.245Z,4.73
2023-03-04T04:40:08.695Z,5.69
2023-03-04T04:41:05.830Z,5.62
2023-03-04T04:42:03.968Z,5.10
2023-03-04T04:43:00.789Z,5.31
2023-03-04T04:43:57.869Z,5.13
2023-03-04T04:44:54.733Z,5.99
2023-03-04T04:45:51.981Z,6.30
2023-03-04T04:46:48.751Z,6.17
2023-03-04T04:47:45.587Z,6.20
2023-03-04T04:48:42.853Z,5.81
2023-03-04T04:49:39.684Z,4.53
2023-03-04T04:50:36.408Z,2.94
2023-03-04T04:51:34.767Z,4.03
2023-03-04T04:52:31.607Z,4.29
2023-03-04T04:53:28.469Z,5.19
2023-03-04T04:54:25.678Z,5.32
2023-03-04T04:55:22.519Z,5.43
2023-03-04T04:56:23.284Z,5.11
2023-03-04T04:57:20.079Z,4.51
2023-03-04T04:58:16.920Z,4.94
2023-03-04T04:59:13.828Z,5.37
2023-03-04T05:00:11.519Z,5.54
2023-03-04T05:01:08.706Z,5.25
2023-03-04T05:02:05.598Z,5.06
2023-03-04T05:03:02.485Z,5.64
2023-03-04T05:03:59.374Z,5.96
2023-03-04T05:04:56.253Z,6.34
2023-03-04T05:05:52.979Z,4.08
2023-03-04T05:06:49.844Z,6.53
2023-03-04T05:07:46.651Z,6.65
2023-03-04T05:08:43.414Z,5.92
2023-03-04T05:09:40.264Z,6.69
2023-03-04T05:10:37.049Z,6.29
2023-03-04T05:11:34.485Z,4.23
2023-03-04T05:12:31.429Z,6.03
2023-03-04T05:13:28.454Z,5.86
2023-03-04T05:14:25.360Z,5.55
2023-03-04T05:15:22.178Z,5.08
2023-03-04T05:16:19.435Z,5.62
2023-03-04T05:17:16.202Z,5.60
2023-03-04T05:18:13.469Z,5.09
2023-03-04T05:19:10.608Z,5.51
2023-03-04T05:20:08.868Z,4.88
2023-03-04T05:21:05.986Z,5.31
2023-03-04T05:22:02.749Z,5.47
2023-03-04T05:22:59.667Z,4.31
2023-03-04T05:23:56.408Z,4.69
2023-03-04T05:24:53.292Z,4.39
2023-03-04T05:25:51.102Z,4.93
2023-03-04T05:26:47.914Z,5.60
2023-03-04T05:27:44.695Z,5.00
2023-03-04T05:28:41.815Z,5.80
2023-03-04T05:29:38.638Z,5.66
2023-03-04T05:30:35.451Z,5.91
2023-03-04T05:31:32.273Z,5.89
2023-03-04T05:32:29.180Z,5.83
2023-03-04T05:33:26.561Z,6.17
2023-03-04T05:34:23.368Z,6.77
2023-03-04T05:35:20.602Z,6.14
2023-03-04T05:36:17.492Z,6.88
2023-03-04T05:37:14.263Z,6.80
2023-03-04T05:38:15.045Z,6.42
2023-03-04T05:39:12.413Z,5.27
2023-03-04T05:40:10.034Z,6.20
2023-03-04T05:41:08.269Z,5.65
2023-03-04T05:42:05.224Z,6.17
2023-03-04T05:43:02.262Z,6.47
2023-03-04T05:43:59.076Z,6.62
2023-03-04T05:44:56.028Z,6.22
2023-03-04T05:45:52.943Z,5.49
2023-03-04T05:46:49.780Z,6.96
2023-03-04T05:47:46.533Z,3.39
2023-03-04T05:48:44.373Z,5.22
2023-03-04T05:49:41.897Z,6.45
2023-03-04T05:50:38.652Z,5.04
2023-03-04T05:51:35.462Z,5.93
2023-03-04T05:52:32.324Z,5.73
2023-03-04T05:53:29.702Z,6.24
2023-03-04T05:54:26.580Z,6.23
2023-03-04T05:55:23.449Z,6.32
2023-03-04T05:56:21.258Z,6.30
2023-03-04T05:57:18.084Z,6.44
2023-03-04T05:58:15.858Z,6.62
2023-03-04T05:59:12.782Z,6.56
2023-03-04T06:00:13.135Z,5.81
2023-03-04T06:01:11.186Z,6.59
2023-03-04T06:02:08.507Z,7.42
2023-03-04T06:03:05.345Z,7.72
2023-03-04T06:04:02.322Z,7.50
2023-03-04T06:04:59.165Z,7.69
2023-03-04T06:05:56.357Z,4.30
2023-03-04T06:06:53.187Z,7.35
2023-03-04T06:07:49.958Z,6.79
2023-03-04T06:08:46.862Z,6.88
2023-03-04T06:09:45.254Z,8.11
2023-03-04T06:10:42.573Z,8.17
2023-03-04T06:11:39.997Z,8.02
2023-03-04T06:12:39.955Z,8.08
2023-03-04T06:13:36.758Z,8.10
2023-03-04T06:14:33.586Z,8.01
2023-03-04T06:15:30.908Z,7.90
2023-03-04T06:16:27.771Z,7.62
2023-03-04T06:17:24.605Z,8.07
2023-03-04T06:18:22.016Z,7.97
2023-03-04T06:19:18.925Z,7.54
2023-03-04T06:20:15.786Z,5.53
2023-03-04T06:21:12.862Z,7.02
2023-03-04T06:22:10.378Z,6.35
2023-03-04T06:23:07.287Z,7.27
2023-03-04T06:24:04.281Z,7.00
2023-03-04T06:25:01.580Z,6.60
2023-03-04T06:26:00.883Z,7.11
2023-03-04T06:26:57.695Z,7.32
2023-03-04T06:27:55.337Z,7.05
2023-03-04T06:28:52.281Z,6.49
2023-03-04T06:29:49.082Z,5.62
2023-03-04T06:30:45.957Z,7.33
2023-03-04T06:31:42.773Z,7.28
2023-03-04T06:32:40.442Z,5.72
2023-03-04T06:33:37.390Z,5.95
2023-03-04T06:34:34.430Z,6.56
2023-03-04T06:35:31.176Z,6.84
2023-03-04T06:36:28.165Z,7.27
2023-03-04T06:37:25.104Z,7.71
2023-03-04T06:38:27.257Z,7.41
2023-03-04T06:39:24.099Z,7.07
2023-03-04T06:40:21.030Z,7.09
2023-03-04T06:41:17.820Z,7.78
2023-03-04T06:42:15.397Z,7.60
2023-03-04T06:43:12.188Z,4.17
2023-03-04T06:44:09.044Z,7.15
2023-03-04T06:45:09.330Z,6.38
2023-03-04T06:46:10.215Z,7.71
2023-03-04T06:47:07.853Z,7.52
2023-03-04T06:48:04.857Z,7.63
2023-03-04T06:49:02.025Z,7.07
2023-03-04T06:49:58.899Z,7.67
2023-03-04T06:50:55.787Z,7.45
2023-03-04T06:51:55.299Z,6.88
2023-03-04T06:52:52.069Z,6.73
2023-03-04T06:53:51.696Z,6.73
2023-03-04T06:54:51.631Z,7.59
2023-03-04T06:55:49.835Z,7.90
2023-03-04T06:56:46.593Z,7.76
2023-03-04T06:57:43.508Z,7.59
2023-03-04T06:58:40.313Z,7.81
2023-03-04T06:59:39.910Z,7.16
2023-03-04T07:00:36.793Z,7.78
2023-03-04T07:01:35.174Z,6.86
2023-03-04T07:02:34.991Z,7.69
2023-03-04T07:03:31.854Z,7.30
2023-03-04T07:04:31.555Z,6.74
2023-03-04T07:05:28.601Z,4.60
2023-03-04T07:06:29.359Z,6.30
2023-03-04T07:07:27.405Z,4.81
2023-03-04T07:08:24.192Z,8.09
2023-03-04T07:09:23.958Z,8.05
2023-03-04T07:10:21.108Z,8.11
2023-03-04T07:11:24.489Z,7.65
2023-03-04T07:12:21.422Z,8.07
2023-03-04T07:13:18.259Z,8.24
2023-03-04T07:14:17.451Z,6.99
2023-03-04T07:15:15.806Z,7.64
2023-03-04T07:16:18.576Z,7.11
2023-03-04T07:17:16.490Z,7.79
2023-03-04T07:18:13.287Z,8.02
2023-03-04T07:19:10.220Z,7.99
2023-03-04T07:20:09.666Z,7.96
2023-03-04T07:21:12.312Z,7.89
2023-03-04T07:22:12.223Z,7.96
2023-03-04T07:23:10.241Z,8.36
2023-03-04T07:24:08.263Z,6.94
2023-03-04T07:25:06.467Z,8.32
2023-03-04T07:26:03.956Z,7.51
2023-03-04T07:27:00.747Z,7.34
2023-03-04T07:27:57.680Z,7.76
2023-03-04T07:28:55.864Z,7.51
2023-03-04T07:29:57.842Z,8.09
2023-03-04T07:30:54.712Z,8.49
2023-03-04T07:31:53.595Z,8.12
2023-03-04T07:32:50.673Z,7.46
2023-03-04T07:33:47.655Z,8.58
2023-03-04T07:34:44.497Z,7.99
2023-03-04T07:35:42.385Z,7.52
2023-03-04T07:36:41.091Z,7.91
2023-03-04T07:37:37.897Z,8.17
2023-03-04T07:38:37.462Z,7.87
2023-03-04T07:39:36.343Z,8.12
2023-03-04T07:40:33.284Z,8.42
2023-03-04T07:41:30.342Z,9.42
2023-03-04T07:42:27.220Z,9.20
2023-03-04T07:43:26.377Z,8.09
2023-03-04T07:44:23.177Z,8.57
2023-03-04T07:45:20.206Z,8.69
2023-03-04T07:46:17.814Z,8.11
2023-03-04T07:47:14.978Z,8.35
2023-03-04T07:48:11.837Z,7.80
2023-03-04T07:49:08.911Z,7.98
2023-03-04T07:50:06.336Z,8.97
2023-03-04T07:51:15.029Z,8.88
2023-03-04T07:52:14.671Z,8.43
2023-03-04T07:53:11.479Z,7.35
2023-03-04T07:54:08.382Z,8.41
2023-03-04T07:55:05.598Z,7.42
2023-03-04T07:56:06.853Z,8.63
2023-03-04T07:57:03.787Z,7.57
2023-03-04T07:58:00.756Z,8.49
2023-03-04T07:58:57.886Z,6.90
2023-03-04T07:59:57.216Z,8.56
2023-03-04T08:01:01.701Z,8.51
2023-03-04T08:01:58.531Z,7.73
2023-03-04T08:02:55.351Z,5.96
2023-03-04T08:03:52.827Z,7.90
2023-03-04T08:04:49.737Z,8.85
2023-03-04T08:05:48.630Z,8.25
2023-03-04T08:06:45.455Z,8.68
2023-03-04T08:07:42.450Z,7.93
2023-03-04T08:08:39.817Z,8.79
2023-03-04T08:09:39.956Z,8.04
2023-03-04T08:10:40.036Z,8.52
2023-03-04T08:11:38.543Z,6.76
2023-03-04T08:12:40.484Z,6.60
2023-03-04T08:13:37.582Z,8.53
2023-03-04T08:14:35.030Z,8.66
2023-03-04T08:15:32.979Z,8.40
2023-03-04T08:16:29.953Z,9.35
2023-03-04T08:17:26.896Z,7.30
2023-03-04T08:18:23.847Z,9.03
2023-03-04T08:19:21.968Z,8.48
2023-03-04T08:20:19.196Z,8.41
2023-03-04T08:21:30.423Z,9.10
2023-03-04T08:22:30.317Z,7.77
2023-03-04T08:23:30.272Z,7.81
2023-03-04T08:24:34.645Z,9.48
2023-03-04T08:25:31.841Z,6.61
2023-03-04T08:26:56.617Z,6.62
2023-03-04T08:27:53.445Z,7.34
2023-03-04T08:28:54.204Z,8.91
2023-03-04T08:29:53.634Z,9.05
2023-03-04T08:30:57.084Z,8.12
2023-03-04T08:31:58.429Z,9.26
2023-03-04T08:32:58.216Z,7.84
2023-03-04T08:34:09.408Z,8.80
2023-03-04T08:35:06.539Z,7.69
2023-03-04T08:36:12.891Z,5.01
2023-03-04T08:37:18.269Z,5.90
2023-03-04T08:38:15.133Z,5.99
2023-03-04T08:39:21.476Z,7.12
2023-03-04T08:40:22.001Z,7.90
2023-03-04T08:41:18.973Z,7.31
2023-03-04T08:42:16.115Z,8.33
2023-03-04T08:43:14.052Z,8.73
2023-03-04T08:44:14.538Z,8.91
2023-03-04T08:45:14.790Z,8.74
2023-03-04T08:46:15.059Z,8.95
2023-03-04T08:47:12.450Z,8.92
2023-03-04T08:48:12.328Z,7.82
2023-03-04T08:49:13.022Z,5.86
2023-03-04T08:50:10.865Z,8.94
2023-03-04T08:51:15.104Z,9.08
2023-03-04T08:52:12.031Z,8.14
2023-03-04T08:53:14.850Z,8.78
2023-03-04T08:54:11.747Z,7.04
2023-03-04T08:55:12.478Z,8.87
2023-03-04T08:56:10.422Z,9.13
2023-03-04T08:57:10.750Z,9.08
2023-03-04T08:58:09.338Z,8.79
2023-03-04T08:59:06.334Z,8.51
2023-03-04T09:00:07.567Z,9.08
2023-03-04T09:01:07.519Z,7.67
2023-03-04T09:02:04.546Z,9.28
2023-03-04T09:03:08.558Z,9.22
2023-03-04T09:04:07.977Z,8.91
2023-03-04T09:05:12.425Z,8.94
2023-03-04T09:06:14.406Z,8.63
2023-03-04T09:07:11.471Z,8.33
2023-03-04T09:08:11.624Z,8.27
2023-03-04T09:09:10.928Z,7.32
2023-03-04T09:10:08.861Z,7.87
2023-03-04T09:11:09.443Z,9.67
2023-03-04T09:12:11.956Z,7.66
2023-03-04T09:13:11.589Z,4.94
2023-03-04T09:14:10.827Z,8.84
2023-03-04T09:15:11.556Z,5.00
2023-03-04T09:16:13.975Z,8.67
2023-03-04T09:17:14.403Z,7.78
2023-03-04T09:18:15.667Z,8.59
2023-03-04T09:19:12.528Z,8.58
2023-03-04T09:20:12.406Z,9.01
2023-03-04T09:21:10.254Z,9.88
2023-03-04T09:22:07.202Z,7.22
2023-03-04T09:23:04.220Z,9.05
2023-03-04T09:24:05.304Z,9.31
2023-03-04T09:25:02.346Z,9.33
2023-03-04T09:26:00.359Z,8.80
2023-03-04T09:27:02.196Z,7.25
2023-03-04T09:27:58.953Z,9.57
2023-03-04T09:29:03.496Z,8.13
2023-03-04T09:30:00.507Z,9.05
2023-03-04T09:30:57.427Z,8.60
2023-03-04T09:31:57.094Z,8.63
2023-03-04T09:32:55.517Z,5.43
2023-03-04T09:34:00.841Z,7.24
2023-03-04T09:35:15.412Z,9.27
2023-03-04T09:36:18.387Z,6.26
2023-03-04T09:37:21.141Z,6.14
2023-03-04T09:38:34.156Z,7.07
2023-03-04T09:39:33.426Z,8.22
2023-03-04T09:41:30.180Z,6.83
2023-03-04T09:42:11.201Z,9.61
2023-03-04T09:45:09.794Z,5.93
2023-03-04T09:46:40.736Z,6.37
2023-03-04T09:47:39.879Z,8.73
2023-03-04T09:49:00.315Z,10.75
2023-03-04T09:50:18.231Z,8.47
2023-03-04T09:51:29.045Z,4.98
2023-03-04T09:52:40.396Z,9.74
2023-03-04T09:54:04.237Z,10.09
2023-03-04T09:55:19.034Z,9.98
2023-03-04T09:56:16.521Z,8.53
2023-03-04T09:58:17.172Z,9.75
2023-03-04T09:59:34.289Z,9.02
2023-03-04T10:00:46.337Z,8.30
2023-03-04T10:01:58.626Z,7.38
2023-03-04T10:03:13.878Z,10.30
2023-03-04T10:04:34.982Z,6.03
2023-03-04T10:05:51.016Z,10.44
2023-03-04T10:06:54.738Z,9.53
2023-03-04T10:08:17.738Z,8.41
2023-03-04T10:09:24.755Z,8.62
2023-03-04T10:10:47.629Z,9.87
2023-03-04T10:11:48.859Z,10.12
2023-03-04T10:13:03.722Z,10.13
2023-03-04T10:14:10.093Z,8.75
2023-03-04T10:15:28.628Z,10.59
2023-03-04T10:16:40.912Z,10.77
2023-03-04T10:18:25.599Z,7.21
2023-03-04T10:20:08.943Z,10.44
2023-03-04T10:21:38.747Z,7.29
2023-03-04T10:22:44.654Z,5.90
2023-03-04T10:23:59.769Z,7.66
2023-03-04T10:27:35.158Z,7.03
2023-03-04T10:28:39.276Z,7.30
2023-03-04T10:29:38.947Z,10.04
2023-03-04T10:33:23.444Z,7.58
2023-03-04T10:34:41.494Z,8.27
2023-03-04T10:36:20.398Z,7.68
2023-03-04T10:37:21.402Z,8.82
2023-03-04T10:38:52.679Z,10.59
2023-03-04T10:40:05.377Z,8.38
2023-03-04T10:41:21.408Z,9.05
2023-03-04T10:42:21.237Z,11.17
2023-03-04T10:43:23.491Z,10.46
2023-03-04T10:45:44.726Z,6.14
2023-03-04T10:46:59.871Z,8.57
2023-03-04T10:48:12.449Z,8.59
2023-03-04T10:49:19.978Z,7.92
2023-03-04T10:50:32.017Z,9.13
2023-03-04T10:51:36.220Z,9.74
2023-03-04T10:52:44.168Z,6.92
2023-03-04T10:53:55.064Z,9.19
2023-03-04T10:55:02.662Z,10.66
2023-03-04T10:56:01.792Z,6.28
2023-03-04T10:57:00.759Z,8.88
2023-03-04T10:58:07.745Z,11.03
2023-03-04T10:59:32.159Z,11.00
2023-03-04T11:00:34.961Z,10.90
2023-03-04T11:01:32.482Z,10.44
2023-03-04T11:02:39.048Z,9.69
2023-03-04T11:03:38.948Z,10.79
2023-03-04T11:04:38.455Z,10.34
2023-03-04T11:05:35.234Z,9.86
2023-03-04T11:06:32.684Z,10.70
2023-03-04T11:07:29.524Z,7.70
2023-03-04T11:08:26.283Z,10.79
2023-03-04T11:09:32.204Z,10.40
2023-03-04T11:10:40.390Z,10.24
2023-03-04T11:11:47.720Z,10.51
2023-03-04T11:12:56.715Z,11.04
2023-03-04T11:14:29.611Z,11.67
2023-03-04T11:15:31.441Z,10.92
2023-03-04T11:16:35.460Z,8.23
2023-03-04T11:17:59.303Z,10.37
2023-03-04T11:19:05.523Z,10.21
2023-03-04T11:20:26.972Z,11.39
2023-03-04T11:21:28.958Z,11.04
2023-03-04T11:22:31.518Z,10.52
2023-03-04T11:23:53.048Z,11.26
2023-03-04T11:25:14.276Z,8.66
2023-03-04T11:26:20.088Z,11.14
2023-03-04T11:27:29.664Z,10.58
2023-03-04T11:28:48.732Z,10.25
2023-03-04T11:30:01.344Z,11.17
2023-03-04T11:31:15.531Z,9.11
2023-03-04T11:32:33.160Z,9.10
2023-03-04T11:33:51.531Z,10.45
2023-03-04T11:35:07.131Z,10.69
2023-03-04T11:36:48.251Z,10.44
2023-03-04T11:38:04.860Z,9.50
2023-03-04T11:39:08.854Z,10.22
2023-03-04T11:40:16.832Z,11.14
2023-03-04T11:41:20.880Z,10.69
2023-03-04T11:42:30.720Z,10.70
2023-03-04T11:43:47.386Z,10.24
2023-03-04T11:44:44.530Z,10.53
2023-03-04T11:46:01.394Z,10.11
2023-03-04T11:47:05.597Z,10.14
2023-03-04T11:48:27.282Z,10.31
2023-03-04T11:49:50.617Z,10.09
2023-03-04T11:51:35.033Z,9.97
2023-03-04T11:52:47.370Z,10.09
2023-03-04T11:54:01.837Z,11.05
2023-03-04T11:55:07.989Z,11.15
2023-03-04T11:56:24.600Z,10.56
2023-03-04T11:57:57.585Z,8.75
2023-03-04T11:59:18.691Z,10.38
2023-03-04T12:00:45.798Z,11.53
2023-03-04T12:02:16.391Z,11.90
2023-03-04T12:03:50.716Z,12.35
2023-03-04T12:05:13.099Z,12.45
2023-03-04T12:06:28.599Z,10.56
2023-03-04T12:07:50.684Z,11.87
2023-03-04T12:08:53.170Z,11.64
2023-03-04T12:10:02.225Z,10.83
2023-03-04T12:11:13.800Z,10.22
2023-03-04T12:12:52.011Z,11.69
2023-03-04T12:14:27.763Z,11.47
2023-03-04T12:15:48.895Z,11.64
2023-03-04T12:17:26.861Z,11.78
2023-03-04T12:18:39.621Z,11.57
2023-03-04T12:19:42.020Z,12.03
2023-03-04T12:21:10.926Z,11.85
2023-03-04T12:22:32.033Z,11.00
2023-03-04T12:23:36.851Z,11.03
2023-03-04T12:24:55.262Z,10.82
2023-03-04T12:26:39.804Z,9.02
2023-03-04T12:28:20.859Z,11.18
2023-03-04T12:29:51.232Z,8.50
2023-03-04T12:30:56.579Z,11.58
2023-03-04T12:32:36.109Z,11.42
2023-03-04T12:33:51.195Z,12.05
2023-03-04T12:35:16.088Z,11.56
2023-03-04T12:36:30.914Z,11.93
2023-03-04T12:37:39.401Z,11.53
2023-03-04T12:38:45.169Z,11.95
2023-03-04T12:40:11.416Z,10.01
2023-03-04T12:41:31.780Z,11.23
2023-03-04T12:42:46.090Z,11.28
2023-03-04T12:43:50.219Z,11.89
2023-03-04T12:45:01.499Z,11.82
2023-03-04T12:46:44.615Z,11.78
2023-03-04T12:48:02.720Z,11.29
2023-03-04T12:49:14.344Z,11.56
2023-03-04T12:50:45.524Z,11.47
2023-03-04T12:51:44.884Z,11.67
2023-03-04T12:52:50.211Z,11.84
2023-03-04T12:54:15.926Z,12.09
2023-03-04T12:55:17.274Z,11.23
2023-03-04T12:56:31.249Z,10.11
2023-03-04T12:57:31.868Z,11.62
2023-03-04T12:58:38.571Z,11.72
2023-03-04T12:59:57.954Z,11.42
2023-03-04T13:01:16.087Z,8.18
2023-03-04T13:02:21.464Z,11.60
2023-03-04T13:03:48.705Z,11.69
2023-03-04T13:05:20.848Z,11.60
2023-03-04T13:06:31.553Z,11.67
2023-03-04T13:07:41.544Z,11.58
2023-03-04T13:08:54.041Z,10.69
2023-03-04T13:09:59.611Z,10.63
2023-03-04T13:11:29.138Z,11.11
2023-03-04T13:12:25.918Z,10.29
2023-03-04T13:13:42.678Z,10.91
2023-03-04T13:15:12.390Z,10.94
2023-03-04T13:16:12.248Z,11.64
2023-03-04T13:17:49.148Z,11.46
2023-03-04T13:18:54.751Z,11.39
2023-03-04T13:19:59.475Z,11.28
2023-03-04T13:21:13.252Z,11.14
2023-03-04T13:22:35.023Z,10.98
2023-03-04T13:23:35.160Z,10.34
2023-03-04T13:25:01.505Z,11.04
2023-03-04T13:25:58.222Z,11.40
2023-03-04T13:26:55.571Z,10.20
2023-03-04T13:28:11.564Z,11.03
2023-03-04T13:29:14.394Z,11.02
2023-03-04T13:30:32.585Z,10.73
2023-03-04T13:31:45.380Z,10.98
2023-03-04T13:32:44.255Z,10.81
2023-03-04T13:33:48.641Z,11.18
2023-03-04T13:34:54.582Z,10.48
2023-03-04T13:35:54.489Z,10.99
2023-03-04T13:37:24.462Z,9.16
2023-03-04T13:38:26.984Z,10.82
2023-03-04T13:39:28.407Z,8.28
2023-03-04T13:40:38.570Z,11.22
2023-03-04T13:41:57.092Z,10.95
2023-03-04T13:43:45.913Z,11.04
2023-03-04T13:44:52.873Z,11.01
2023-03-04T13:45:49.892Z,10.93
2023-03-04T13:46:49.359Z,11.02
2023-03-04T13:47:50.674Z,10.12
2023-03-04T13:49:01.779Z,11.35
2023-03-04T13:50:45.899Z,11.02